THY6481 UAAA-LTFM
Flight info
| Callsign | THY6481 |
|---|---|
| Flight time | 5h 24m |
| Altitude | 38000 |
| Route | K0896F360 DCT TIPSA L855 ORTEG M610 DIVNO N161 MASAV/K0906F380 N161 GASBI/N0489F380 N161 LEYLA N644 ADEKI DCT BADIR DCT LAGAS DCT NOLGA UG261 TBN UM11 CRM UL746 GOKPA UM10 HAKAN UN644 GUMRU UT315 NUGBA NUGBA1D |
| Aircraft | B77W/H-SDE1E2E3FGHIJ2J3J4J5M1RWXY/LB1D1 |
Departure
| Time | 2026-05-07 21:00 |
|---|---|
| Airport | Almaty International Airport (UAAA) |
Arrival
| Time | 2026-05-08 02:25 |
|---|---|
| Airport | İstanbul Airport (LTFM) |
| Time | Latitude | Longitude | Altitude | Speed | Heading |
|---|---|---|---|---|---|
| 2026-05-07 20:23 | 43.35117 | 77.01855 | 2236 ft | 0 kts | 2° |
| 2026-05-07 20:46 | 43.35110 | 77.01854 | 2236 ft | 4 kts | 1° |
| 2026-05-07 20:46 | 43.35084 | 77.01853 | 2225 ft | 4 kts | 9° |
| 2026-05-07 20:47 | 43.35057 | 77.01846 | 2236 ft | 4 kts | 15° |
| 2026-05-07 20:47 | 43.35031 | 77.01834 | 2236 ft | 4 kts | 22° |
| 2026-05-07 20:47 | 43.35019 | 77.01827 | 2233 ft | 0 kts | 24° |
| 2026-05-07 20:51 | 43.35027 | 77.01833 | 2230 ft | 2 kts | 30° |
| 2026-05-07 20:51 | 43.35039 | 77.01848 | 2236 ft | 4 kts | 46° |
| 2026-05-07 20:51 | 43.35049 | 77.01894 | 2226 ft | 6 kts | 99° |
| 2026-05-07 20:52 | 43.35022 | 77.01966 | 2231 ft | 11 kts | 115° |
| 2026-05-07 20:52 | 43.35007 | 77.02085 | 2236 ft | 15 kts | 94° |
| 2026-05-07 20:52 | 43.34969 | 77.02232 | 2231 ft | 18 kts | 132° |
| 2026-05-07 20:52 | 43.34862 | 77.02357 | 2231 ft | 22 kts | 146° |
| 2026-05-07 20:53 | 43.34768 | 77.02520 | 2238 ft | 23 kts | 103° |
| 2026-05-07 20:53 | 43.34826 | 77.02714 | 2232 ft | 23 kts | 55° |
| 2026-05-07 20:53 | 43.34915 | 77.02891 | 2231 ft | 23 kts | 56° |
| 2026-05-07 20:53 | 43.35003 | 77.03069 | 2229 ft | 23 kts | 56° |
| 2026-05-07 20:54 | 43.35092 | 77.03247 | 2238 ft | 23 kts | 55° |
| 2026-05-07 20:54 | 43.35180 | 77.03424 | 2239 ft | 23 kts | 55° |
| 2026-05-07 20:54 | 43.35269 | 77.03602 | 2238 ft | 23 kts | 56° |
| 2026-05-07 20:54 | 43.35357 | 77.03780 | 2237 ft | 23 kts | 56° |
| 2026-05-07 20:55 | 43.35445 | 77.03957 | 2229 ft | 23 kts | 56° |
| 2026-05-07 20:55 | 43.35533 | 77.04136 | 2235 ft | 23 kts | 56° |
| 2026-05-07 20:55 | 43.35622 | 77.04313 | 2238 ft | 23 kts | 55° |
| 2026-05-07 20:55 | 43.35710 | 77.04490 | 2239 ft | 23 kts | 56° |
| 2026-05-07 20:56 | 43.35798 | 77.04668 | 2239 ft | 23 kts | 56° |
| 2026-05-07 20:56 | 43.35887 | 77.04846 | 2238 ft | 23 kts | 56° |
| 2026-05-07 20:56 | 43.35975 | 77.05024 | 2238 ft | 23 kts | 56° |
| 2026-05-07 20:56 | 43.36063 | 77.05202 | 2240 ft | 23 kts | 56° |
| 2026-05-07 20:57 | 43.36150 | 77.05378 | 2240 ft | 23 kts | 56° |
| 2026-05-07 20:57 | 43.36238 | 77.05556 | 2242 ft | 23 kts | 56° |
| 2026-05-07 20:57 | 43.36327 | 77.05734 | 2241 ft | 23 kts | 56° |
| 2026-05-07 20:57 | 43.36415 | 77.05912 | 2240 ft | 22 kts | 55° |
| 2026-05-07 20:58 | 43.36485 | 77.06075 | 2240 ft | 17 kts | 83° |
| 2026-05-07 20:58 | 43.36417 | 77.06189 | 2243 ft | 17 kts | 178° |
| 2026-05-07 20:58 | 43.36308 | 77.06134 | 2243 ft | 15 kts | 214° |
| 2026-05-07 20:58 | 43.36276 | 77.06081 | 2244 ft | 0 kts | 236° |
| 2026-05-07 20:59 | 43.36161 | 77.05848 | 2245 ft | 67 kts | 236° |
| 2026-05-07 20:59 | 43.35765 | 77.05054 | 2240 ft | 135 kts | 235° |
| 2026-05-07 21:00 | 43.35124 | 77.03775 | 2254 ft | 187 kts | 235° |
| 2026-05-07 21:00 | 43.34338 | 77.02213 | 2515 ft | 208 kts | 235° |
| 2026-05-07 21:00 | 43.33519 | 77.00505 | 3005 ft | 220 kts | 239° |
| 2026-05-07 21:00 | 43.32773 | 76.98671 | 3714 ft | 220 kts | 242° |
| 2026-05-07 21:01 | 43.32037 | 76.96798 | 4350 ft | 227 kts | 242° |
| 2026-05-07 21:01 | 43.31294 | 76.94835 | 4919 ft | 232 kts | 250° |
| 2026-05-07 21:01 | 43.31049 | 76.92621 | 5461 ft | 242 kts | 274° |
| 2026-05-07 21:01 | 43.31330 | 76.90351 | 6117 ft | 241 kts | 283° |
| 2026-05-07 21:02 | 43.32085 | 76.88221 | 6457 ft | 264 kts | 313° |
| 2026-05-07 21:02 | 43.33714 | 76.86977 | 6956 ft | 279 kts | 346° |
| 2026-05-07 21:02 | 43.35656 | 76.86591 | 7465 ft | 286 kts | 348° |
| 2026-05-07 21:02 | 43.37587 | 76.85962 | 8255 ft | 284 kts | 340° |
| 2026-05-07 21:03 | 43.39447 | 76.85036 | 9029 ft | 285 kts | 335° |
| 2026-05-07 21:03 | 43.41281 | 76.83945 | 9723 ft | 290 kts | 334° |
| 2026-05-07 21:03 | 43.43129 | 76.82784 | 9988 ft | 294 kts | 333° |
| 2026-05-07 21:03 | 43.44955 | 76.81508 | 9952 ft | 291 kts | 322° |
| 2026-05-07 21:04 | 43.46277 | 76.79467 | 9961 ft | 287 kts | 296° |
| 2026-05-07 21:04 | 43.47061 | 76.76962 | 9969 ft | 286 kts | 290° |
| 2026-05-07 21:04 | 43.47803 | 76.74410 | 10270 ft | 289 kts | 290° |
| 2026-05-07 21:04 | 43.48567 | 76.71788 | 10817 ft | 301 kts | 290° |
| 2026-05-07 21:05 | 43.49368 | 76.69046 | 11350 ft | 315 kts | 291° |
| 2026-05-07 21:05 | 43.50206 | 76.66182 | 11897 ft | 330 kts | 291° |
| 2026-05-07 21:05 | 43.51090 | 76.63175 | 12469 ft | 346 kts | 291° |
| 2026-05-07 21:05 | 43.51699 | 76.61107 | 12839 ft | 356 kts | 291° |
| 2026-05-07 21:06 | 43.52650 | 76.57873 | 13407 ft | 371 kts | 291° |
| 2026-05-07 21:06 | 43.53627 | 76.54542 | 14049 ft | 379 kts | 291° |
| 2026-05-07 21:06 | 43.54617 | 76.51153 | 14691 ft | 383 kts | 291° |
| 2026-05-07 21:06 | 43.55613 | 76.47730 | 15341 ft | 387 kts | 291° |
| 2026-05-07 21:07 | 43.56617 | 76.44276 | 15992 ft | 390 kts | 291° |
| 2026-05-07 21:07 | 43.57632 | 76.40785 | 16667 ft | 393 kts | 291° |
| 2026-05-07 21:07 | 43.58652 | 76.37270 | 17357 ft | 397 kts | 291° |
| 2026-05-07 21:07 | 43.59675 | 76.33712 | 18073 ft | 400 kts | 289° |
| 2026-05-07 21:08 | 43.60322 | 76.29984 | 18693 ft | 400 kts | 275° |
| 2026-05-07 21:08 | 43.60485 | 76.26129 | 19351 ft | 405 kts | 272° |
| 2026-05-07 21:08 | 43.60611 | 76.22219 | 20003 ft | 411 kts | 273° |
| 2026-05-07 21:08 | 43.60747 | 76.18303 | 20661 ft | 416 kts | 273° |
| 2026-05-07 21:09 | 43.60902 | 76.14292 | 21338 ft | 420 kts | 274° |
| 2026-05-07 21:09 | 43.61073 | 76.10248 | 22030 ft | 423 kts | 274° |
| 2026-05-07 21:09 | 43.61255 | 76.06178 | 22736 ft | 426 kts | 274° |
| 2026-05-07 21:09 | 43.61443 | 76.02062 | 23459 ft | 429 kts | 274° |
| 2026-05-07 21:10 | 43.61632 | 75.97943 | 24092 ft | 431 kts | 274° |
| 2026-05-07 21:10 | 43.61822 | 75.93797 | 24706 ft | 433 kts | 274° |
| 2026-05-07 21:10 | 43.62010 | 75.89642 | 25342 ft | 435 kts | 275° |
| 2026-05-07 21:10 | 43.62198 | 75.85466 | 25996 ft | 436 kts | 275° |
| 2026-05-07 21:11 | 43.62384 | 75.81286 | 26649 ft | 437 kts | 275° |
| 2026-05-07 21:11 | 43.62568 | 75.77104 | 27323 ft | 437 kts | 275° |
| 2026-05-07 21:11 | 43.62933 | 75.68724 | 28623 ft | 438 kts | 275° |
| 2026-05-07 21:12 | 43.63114 | 75.64513 | 29228 ft | 440 kts | 275° |
| 2026-05-07 21:12 | 43.63294 | 75.60285 | 29826 ft | 442 kts | 275° |
| 2026-05-07 21:12 | 43.63473 | 75.56052 | 30382 ft | 442 kts | 275° |
| 2026-05-07 21:12 | 43.63691 | 75.51874 | 30884 ft | 440 kts | 278° |
| 2026-05-07 21:13 | 43.64214 | 75.47713 | 31424 ft | 439 kts | 284° |
| 2026-05-07 21:13 | 43.64929 | 75.43622 | 31977 ft | 437 kts | 285° |
| 2026-05-07 21:13 | 43.65702 | 75.39568 | 32524 ft | 436 kts | 285° |
| 2026-05-07 21:13 | 43.66472 | 75.35528 | 33086 ft | 434 kts | 285° |
| 2026-05-07 21:14 | 43.67217 | 75.31489 | 33625 ft | 433 kts | 285° |
| 2026-05-07 21:14 | 43.67937 | 75.27449 | 34026 ft | 434 kts | 284° |
| 2026-05-07 21:14 | 43.68640 | 75.23388 | 34377 ft | 435 kts | 284° |
| 2026-05-07 21:14 | 43.69332 | 75.19317 | 34746 ft | 435 kts | 284° |
| 2026-05-07 21:15 | 43.70018 | 75.15240 | 35067 ft | 437 kts | 284° |
| 2026-05-07 21:15 | 43.70708 | 75.11118 | 35153 ft | 444 kts | 284° |
| 2026-05-07 21:15 | 43.72114 | 75.02684 | 35260 ft | 456 kts | 283° |
| 2026-05-07 21:16 | 43.72826 | 74.98400 | 35401 ft | 459 kts | 283° |
| 2026-05-07 21:16 | 43.73542 | 74.94087 | 35657 ft | 459 kts | 283° |
| 2026-05-07 21:16 | 43.74253 | 74.89794 | 35939 ft | 459 kts | 283° |
| 2026-05-07 21:16 | 43.74967 | 74.85474 | 35976 ft | 462 kts | 283° |
| 2026-05-07 21:17 | 43.76390 | 74.76833 | 36004 ft | 458 kts | 283° |
| 2026-05-07 21:17 | 43.77790 | 74.68284 | 36020 ft | 454 kts | 283° |
| 2026-05-07 21:18 | 43.79179 | 74.59765 | 36014 ft | 453 kts | 283° |
| 2026-05-07 21:18 | 43.80552 | 74.51301 | 36007 ft | 454 kts | 283° |
| 2026-05-07 21:19 | 43.81928 | 74.42774 | 36002 ft | 454 kts | 283° |
| 2026-05-07 21:19 | 43.83300 | 74.34232 | 35982 ft | 455 kts | 283° |
| 2026-05-07 21:20 | 43.84254 | 74.25568 | 35995 ft | 455 kts | 276° |
| 2026-05-07 21:20 | 43.84825 | 74.16819 | 35982 ft | 457 kts | 276° |
| 2026-05-07 21:21 | 43.85396 | 74.08050 | 35987 ft | 457 kts | 276° |
| 2026-05-07 21:21 | 43.85980 | 73.99265 | 35969 ft | 458 kts | 276° |
| 2026-05-07 21:22 | 43.86567 | 73.90465 | 35970 ft | 458 kts | 276° |
| 2026-05-07 21:22 | 43.87148 | 73.81688 | 35959 ft | 457 kts | 276° |
| 2026-05-07 21:23 | 43.87720 | 73.72926 | 35952 ft | 456 kts | 275° |
| 2026-05-07 21:23 | 43.88283 | 73.64184 | 35952 ft | 455 kts | 275° |
| 2026-05-07 21:24 | 43.88839 | 73.55465 | 35953 ft | 454 kts | 275° |
| 2026-05-07 21:24 | 43.89386 | 73.46768 | 35952 ft | 453 kts | 275° |
| 2026-05-07 21:25 | 43.89926 | 73.38069 | 35951 ft | 452 kts | 275° |
| 2026-05-07 21:25 | 43.90459 | 73.29380 | 35950 ft | 452 kts | 275° |
| 2026-05-07 21:26 | 43.90987 | 73.20679 | 35951 ft | 453 kts | 275° |
| 2026-05-07 21:26 | 43.91507 | 73.11983 | 35945 ft | 453 kts | 275° |
| 2026-05-07 21:27 | 43.92021 | 73.03280 | 35946 ft | 452 kts | 275° |
| 2026-05-07 21:27 | 43.92528 | 72.94583 | 35948 ft | 452 kts | 274° |
| 2026-05-07 21:28 | 43.93028 | 72.85883 | 35946 ft | 452 kts | 274° |
| 2026-05-07 21:28 | 43.93523 | 72.77178 | 35948 ft | 452 kts | 274° |
| 2026-05-07 21:29 | 43.94009 | 72.68481 | 35947 ft | 452 kts | 274° |
| 2026-05-07 21:29 | 43.94489 | 72.59792 | 35948 ft | 452 kts | 274° |
| 2026-05-07 21:30 | 43.94962 | 72.51105 | 35951 ft | 451 kts | 274° |
| 2026-05-07 21:30 | 43.95429 | 72.42416 | 35947 ft | 451 kts | 274° |
| 2026-05-07 21:31 | 43.95888 | 72.33738 | 35946 ft | 451 kts | 274° |
| 2026-05-07 21:31 | 43.96341 | 72.25062 | 35951 ft | 450 kts | 274° |
| 2026-05-07 21:32 | 43.96783 | 72.16451 | 35953 ft | 450 kts | 274° |
| 2026-05-07 21:32 | 43.97223 | 72.07773 | 35956 ft | 450 kts | 274° |
| 2026-05-07 21:33 | 43.97655 | 71.99117 | 35952 ft | 449 kts | 273° |
| 2026-05-07 21:33 | 43.98082 | 71.90470 | 35948 ft | 449 kts | 274° |
| 2026-05-07 21:34 | 43.99013 | 71.81914 | 35957 ft | 448 kts | 280° |
| 2026-05-07 21:34 | 44.00262 | 71.73429 | 35951 ft | 448 kts | 280° |
| 2026-05-07 21:35 | 44.01490 | 71.64934 | 35953 ft | 448 kts | 280° |
| 2026-05-07 21:35 | 44.02695 | 71.56436 | 35951 ft | 449 kts | 280° |
| 2026-05-07 21:36 | 44.03892 | 71.47912 | 35953 ft | 449 kts | 280° |
| 2026-05-07 21:36 | 44.05084 | 71.39375 | 35959 ft | 450 kts | 279° |
| 2026-05-07 21:37 | 44.06271 | 71.30830 | 35955 ft | 450 kts | 279° |
| 2026-05-07 21:37 | 44.07452 | 71.22279 | 35949 ft | 450 kts | 279° |
| 2026-05-07 21:38 | 44.08625 | 71.13738 | 35953 ft | 449 kts | 279° |
| 2026-05-07 21:38 | 44.09791 | 71.05198 | 35952 ft | 449 kts | 279° |
| 2026-05-07 21:39 | 44.10949 | 70.96669 | 35953 ft | 448 kts | 279° |
| 2026-05-07 21:39 | 44.12103 | 70.88146 | 35953 ft | 448 kts | 279° |
| 2026-05-07 21:40 | 44.13252 | 70.79623 | 35952 ft | 448 kts | 279° |
| 2026-05-07 21:40 | 44.14394 | 70.71098 | 35948 ft | 448 kts | 279° |
| 2026-05-07 21:41 | 44.15526 | 70.62588 | 35946 ft | 447 kts | 279° |
| 2026-05-07 21:41 | 44.16652 | 70.54082 | 35951 ft | 446 kts | 278° |
| 2026-05-07 21:42 | 44.17764 | 70.45634 | 35946 ft | 446 kts | 278° |
| 2026-05-07 21:42 | 44.18878 | 70.37126 | 35944 ft | 446 kts | 278° |
| 2026-05-07 21:43 | 44.19993 | 70.28623 | 35952 ft | 446 kts | 278° |
| 2026-05-07 21:43 | 44.21105 | 70.20119 | 35945 ft | 446 kts | 278° |
| 2026-05-07 21:44 | 44.22210 | 70.11606 | 35961 ft | 446 kts | 278° |
| 2026-05-07 21:44 | 44.23309 | 70.03088 | 35949 ft | 446 kts | 278° |
| 2026-05-07 21:45 | 44.24401 | 69.94564 | 35942 ft | 446 kts | 278° |
| 2026-05-07 21:45 | 44.25486 | 69.86047 | 35949 ft | 446 kts | 278° |
| 2026-05-07 21:46 | 44.26564 | 69.77526 | 35952 ft | 446 kts | 278° |
| 2026-05-07 21:46 | 44.27635 | 69.69014 | 35943 ft | 445 kts | 278° |
| 2026-05-07 21:47 | 44.28699 | 69.60496 | 35944 ft | 445 kts | 278° |
| 2026-05-07 21:47 | 44.29757 | 69.51982 | 35940 ft | 445 kts | 278° |
| 2026-05-07 21:48 | 44.30800 | 69.43532 | 35946 ft | 444 kts | 277° |
| 2026-05-07 21:48 | 44.31841 | 69.35052 | 35936 ft | 442 kts | 277° |
| 2026-05-07 21:49 | 44.32697 | 69.28024 | 35944 ft | 440 kts | 277° |
| 2026-05-07 21:49 | 44.33718 | 69.19601 | 35932 ft | 439 kts | 277° |
| 2026-05-07 21:50 | 44.34729 | 69.11204 | 35933 ft | 438 kts | 277° |
| 2026-05-07 21:50 | 44.35735 | 69.02801 | 35931 ft | 438 kts | 277° |
| 2026-05-07 21:51 | 44.36734 | 68.94403 | 35934 ft | 439 kts | 277° |
| 2026-05-07 21:51 | 44.37725 | 68.85983 | 35934 ft | 439 kts | 276° |
| 2026-05-07 21:52 | 44.38705 | 68.77539 | 35929 ft | 440 kts | 276° |
| 2026-05-07 21:52 | 44.39681 | 68.69080 | 35920 ft | 441 kts | 276° |
| 2026-05-07 21:53 | 44.40654 | 68.60601 | 35923 ft | 442 kts | 276° |
| 2026-05-07 21:53 | 44.41621 | 68.52114 | 35918 ft | 442 kts | 276° |
| 2026-05-07 21:54 | 44.42584 | 68.43613 | 35923 ft | 443 kts | 276° |
| 2026-05-07 21:54 | 44.43541 | 68.35098 | 35921 ft | 443 kts | 276° |
| 2026-05-07 21:55 | 44.44495 | 68.26564 | 35925 ft | 444 kts | 276° |
| 2026-05-07 21:55 | 44.45436 | 68.18023 | 35930 ft | 444 kts | 275° |
| 2026-05-07 21:56 | 44.46335 | 68.09477 | 35916 ft | 443 kts | 275° |
| 2026-05-07 21:56 | 44.47222 | 68.00933 | 35923 ft | 443 kts | 275° |
| 2026-05-07 21:57 | 44.48101 | 67.92443 | 35917 ft | 443 kts | 275° |
| 2026-05-07 21:57 | 44.48982 | 67.83895 | 35921 ft | 443 kts | 275° |
| 2026-05-07 21:58 | 44.49856 | 67.75349 | 35926 ft | 443 kts | 275° |
| 2026-05-07 21:58 | 44.50724 | 67.66797 | 35921 ft | 443 kts | 275° |
| 2026-05-07 21:59 | 44.51587 | 67.58235 | 35927 ft | 444 kts | 275° |
| 2026-05-07 21:59 | 44.52451 | 67.49673 | 35933 ft | 444 kts | 275° |
| 2026-05-07 22:00 | 44.53337 | 67.41111 | 35928 ft | 444 kts | 275° |
| 2026-05-07 22:00 | 44.54220 | 67.32547 | 35922 ft | 443 kts | 275° |
| 2026-05-07 22:01 | 44.55091 | 67.23999 | 35923 ft | 443 kts | 275° |
| 2026-05-07 22:01 | 44.55955 | 67.15442 | 35909 ft | 443 kts | 275° |
| 2026-05-07 22:02 | 44.56812 | 67.06880 | 35912 ft | 443 kts | 275° |
| 2026-05-07 22:02 | 44.57664 | 66.98312 | 35914 ft | 444 kts | 275° |
| 2026-05-07 22:03 | 44.58510 | 66.89726 | 35926 ft | 444 kts | 275° |
| 2026-05-07 22:03 | 44.59350 | 66.81143 | 35922 ft | 444 kts | 275° |
| 2026-05-07 22:04 | 44.60183 | 66.72566 | 35936 ft | 443 kts | 274° |
| 2026-05-07 22:04 | 44.61006 | 66.64027 | 35916 ft | 440 kts | 274° |
| 2026-05-07 22:05 | 44.61790 | 66.55582 | 35916 ft | 438 kts | 273° |
| 2026-05-07 22:05 | 44.62486 | 66.47116 | 35918 ft | 436 kts | 273° |
| 2026-05-07 22:06 | 44.63167 | 66.38657 | 35920 ft | 435 kts | 273° |
| 2026-05-07 22:06 | 44.63849 | 66.30219 | 35925 ft | 435 kts | 273° |
| 2026-05-07 22:07 | 44.64531 | 66.21771 | 35926 ft | 436 kts | 273° |
| 2026-05-07 22:07 | 44.65210 | 66.13298 | 35928 ft | 437 kts | 273° |
| 2026-05-07 22:08 | 44.65883 | 66.04807 | 35928 ft | 438 kts | 273° |
| 2026-05-07 22:08 | 44.66551 | 65.96307 | 35931 ft | 438 kts | 273° |
| 2026-05-07 22:09 | 44.67214 | 65.87791 | 35937 ft | 439 kts | 273° |
| 2026-05-07 22:09 | 44.67871 | 65.79266 | 35931 ft | 439 kts | 272° |
| 2026-05-07 22:10 | 44.68517 | 65.70789 | 35929 ft | 439 kts | 272° |
| 2026-05-07 22:10 | 44.69162 | 65.62271 | 35912 ft | 438 kts | 272° |
| 2026-05-07 22:11 | 44.70040 | 65.53782 | 35922 ft | 441 kts | 279° |
| 2026-05-07 22:11 | 44.71627 | 65.45428 | 35913 ft | 442 kts | 280° |
| 2026-05-07 22:12 | 44.73217 | 65.37066 | 35910 ft | 443 kts | 280° |
| 2026-05-07 22:12 | 44.74787 | 65.28668 | 35925 ft | 445 kts | 280° |
| 2026-05-07 22:13 | 44.76349 | 65.20233 | 35926 ft | 446 kts | 280° |
| 2026-05-07 22:13 | 44.77909 | 65.11770 | 35929 ft | 447 kts | 280° |
| 2026-05-07 22:14 | 44.79457 | 65.03336 | 35940 ft | 448 kts | 280° |
| 2026-05-07 22:14 | 44.81014 | 64.94819 | 35928 ft | 450 kts | 280° |
| 2026-05-07 22:15 | 44.82566 | 64.86272 | 35924 ft | 450 kts | 279° |
| 2026-05-07 22:15 | 44.84068 | 64.77704 | 35928 ft | 451 kts | 279° |
| 2026-05-07 22:16 | 44.85559 | 64.69117 | 35923 ft | 451 kts | 279° |
| 2026-05-07 22:16 | 44.87042 | 64.60582 | 35923 ft | 451 kts | 279° |
| 2026-05-07 22:17 | 44.88454 | 64.51969 | 35942 ft | 451 kts | 278° |
| 2026-05-07 22:17 | 44.89825 | 64.43342 | 35937 ft | 450 kts | 278° |
| 2026-05-07 22:18 | 44.91882 | 64.30397 | 35937 ft | 450 kts | 278° |
| 2026-05-07 22:19 | 44.93249 | 64.21782 | 35933 ft | 450 kts | 278° |
| 2026-05-07 22:19 | 44.94610 | 64.13172 | 35934 ft | 449 kts | 278° |
| 2026-05-07 22:20 | 44.95962 | 64.04565 | 35939 ft | 449 kts | 278° |
| 2026-05-07 22:20 | 44.97308 | 63.95953 | 35946 ft | 449 kts | 277° |
| 2026-05-07 22:21 | 44.98648 | 63.87329 | 35953 ft | 449 kts | 278° |
| 2026-05-07 22:21 | 44.99982 | 63.78709 | 35942 ft | 449 kts | 278° |
| 2026-05-07 22:22 | 45.01299 | 63.70149 | 35950 ft | 448 kts | 277° |
| 2026-05-07 22:22 | 45.02615 | 63.61545 | 35949 ft | 447 kts | 277° |
| 2026-05-07 22:23 | 45.03924 | 63.52948 | 35952 ft | 447 kts | 277° |
| 2026-05-07 22:23 | 45.05226 | 63.44347 | 35972 ft | 447 kts | 277° |
| 2026-05-07 22:24 | 45.06520 | 63.35741 | 35954 ft | 447 kts | 277° |
| 2026-05-07 22:24 | 45.07805 | 63.27157 | 35957 ft | 445 kts | 277° |
| 2026-05-07 22:25 | 45.09080 | 63.18595 | 35961 ft | 444 kts | 277° |
| 2026-05-07 22:25 | 45.10344 | 63.10058 | 35963 ft | 443 kts | 277° |
| 2026-05-07 22:26 | 45.11599 | 63.01534 | 35969 ft | 442 kts | 277° |
| 2026-05-07 22:26 | 45.12846 | 62.93012 | 35998 ft | 442 kts | 277° |
| 2026-05-07 22:27 | 45.14091 | 62.84466 | 35979 ft | 443 kts | 277° |
| 2026-05-07 22:27 | 45.15328 | 62.75923 | 35970 ft | 442 kts | 277° |
| 2026-05-07 22:28 | 45.16556 | 62.67399 | 35972 ft | 441 kts | 277° |
| 2026-05-07 22:28 | 45.17777 | 62.58878 | 35969 ft | 441 kts | 277° |
| 2026-05-07 22:29 | 45.18989 | 62.50358 | 35974 ft | 440 kts | 277° |
| 2026-05-07 22:29 | 45.20190 | 62.41855 | 35971 ft | 440 kts | 277° |
| 2026-05-07 22:30 | 45.21387 | 62.33332 | 35978 ft | 440 kts | 276° |
| 2026-05-07 22:30 | 45.22577 | 62.24816 | 35976 ft | 439 kts | 276° |
| 2026-05-07 22:31 | 45.23755 | 62.16338 | 35975 ft | 438 kts | 276° |
| 2026-05-07 22:31 | 45.24917 | 62.07929 | 35969 ft | 437 kts | 276° |
| 2026-05-07 22:32 | 45.26079 | 61.99464 | 35974 ft | 436 kts | 276° |
| 2026-05-07 22:32 | 45.27234 | 61.91009 | 35972 ft | 436 kts | 276° |
| 2026-05-07 22:33 | 45.28383 | 61.82548 | 35981 ft | 437 kts | 276° |
| 2026-05-07 22:33 | 45.29530 | 61.74070 | 35979 ft | 437 kts | 276° |
| 2026-05-07 22:34 | 45.30672 | 61.65578 | 35975 ft | 437 kts | 276° |
| 2026-05-07 22:34 | 45.31617 | 61.58523 | 35976 ft | 437 kts | 276° |
| 2026-05-07 22:35 | 45.32748 | 61.50021 | 35974 ft | 438 kts | 276° |
| 2026-05-07 22:35 | 45.33872 | 61.41521 | 35972 ft | 438 kts | 276° |
| 2026-05-07 22:36 | 45.34992 | 61.33010 | 35974 ft | 438 kts | 276° |
| 2026-05-07 22:36 | 45.36104 | 61.24493 | 35979 ft | 439 kts | 276° |
| 2026-05-07 22:37 | 45.37213 | 61.15955 | 35973 ft | 439 kts | 276° |
| 2026-05-07 22:37 | 45.38318 | 61.07398 | 35970 ft | 440 kts | 276° |
| 2026-05-07 22:38 | 45.39417 | 60.98835 | 35974 ft | 440 kts | 276° |
| 2026-05-07 22:38 | 45.40509 | 60.90268 | 35976 ft | 440 kts | 276° |
| 2026-05-07 22:39 | 45.41596 | 60.81697 | 35979 ft | 440 kts | 275° |
| 2026-05-07 22:39 | 45.42661 | 60.73126 | 35971 ft | 439 kts | 275° |
| 2026-05-07 22:40 | 45.43642 | 60.64604 | 35969 ft | 438 kts | 275° |
| 2026-05-07 22:40 | 45.44609 | 60.56038 | 35969 ft | 437 kts | 275° |
| 2026-05-07 22:41 | 45.45575 | 60.47481 | 35972 ft | 437 kts | 275° |
| 2026-05-07 22:41 | 45.46540 | 60.38926 | 35972 ft | 437 kts | 274° |
| 2026-05-07 22:42 | 45.47497 | 60.30387 | 35980 ft | 437 kts | 274° |
| 2026-05-07 22:42 | 45.48449 | 60.21842 | 35968 ft | 437 kts | 274° |
| 2026-05-07 22:43 | 45.49396 | 60.13274 | 35979 ft | 438 kts | 274° |
| 2026-05-07 22:43 | 45.50339 | 60.04683 | 35975 ft | 439 kts | 274° |
| 2026-05-07 22:44 | 45.51277 | 59.96079 | 35971 ft | 440 kts | 274° |
| 2026-05-07 22:44 | 45.52204 | 59.87513 | 35974 ft | 440 kts | 274° |
| 2026-05-07 22:45 | 45.53133 | 59.78873 | 35979 ft | 441 kts | 274° |
| 2026-05-07 22:45 | 45.54054 | 59.70233 | 35972 ft | 441 kts | 274° |
| 2026-05-07 22:46 | 45.54970 | 59.61580 | 35971 ft | 441 kts | 274° |
| 2026-05-07 22:46 | 45.55880 | 59.52917 | 35979 ft | 442 kts | 274° |
| 2026-05-07 22:47 | 45.56785 | 59.44246 | 35965 ft | 442 kts | 274° |
| 2026-05-07 22:47 | 45.57683 | 59.35567 | 35972 ft | 442 kts | 274° |
| 2026-05-07 22:48 | 45.58575 | 59.26882 | 35976 ft | 442 kts | 274° |
| 2026-05-07 22:48 | 45.59460 | 59.18203 | 35971 ft | 441 kts | 274° |
| 2026-05-07 22:49 | 45.60337 | 59.09530 | 35978 ft | 441 kts | 274° |
| 2026-05-07 22:49 | 45.61207 | 59.00856 | 35981 ft | 442 kts | 274° |
| 2026-05-07 22:50 | 45.62072 | 58.92164 | 35982 ft | 442 kts | 274° |
| 2026-05-07 22:50 | 45.62932 | 58.83456 | 35975 ft | 443 kts | 274° |
| 2026-05-07 22:51 | 45.63779 | 58.74807 | 35977 ft | 443 kts | 274° |
| 2026-05-07 22:51 | 45.64633 | 58.66024 | 35974 ft | 443 kts | 274° |
| 2026-05-07 22:52 | 45.65473 | 58.57307 | 35974 ft | 443 kts | 273° |
| 2026-05-07 22:52 | 45.66306 | 58.48589 | 35999 ft | 443 kts | 274° |
| 2026-05-07 22:53 | 45.67135 | 58.39850 | 35983 ft | 444 kts | 273° |
| 2026-05-07 22:53 | 45.67957 | 58.31097 | 35976 ft | 445 kts | 273° |
| 2026-05-07 22:54 | 45.68770 | 58.22383 | 35982 ft | 445 kts | 273° |
| 2026-05-07 22:54 | 45.69581 | 58.13613 | 35972 ft | 444 kts | 273° |
| 2026-05-07 22:55 | 45.70384 | 58.04849 | 35975 ft | 444 kts | 273° |
| 2026-05-07 22:55 | 45.71180 | 57.96088 | 35976 ft | 444 kts | 273° |
| 2026-05-07 22:56 | 45.71969 | 57.87324 | 35970 ft | 444 kts | 273° |
| 2026-05-07 22:56 | 45.72754 | 57.78544 | 35973 ft | 445 kts | 273° |
| 2026-05-07 22:57 | 45.73227 | 57.69737 | 35960 ft | 442 kts | 264° |
| 2026-05-07 22:57 | 45.72352 | 57.61080 | 35972 ft | 439 kts | 254° |
| 2026-05-07 22:58 | 45.70418 | 57.52829 | 35974 ft | 438 kts | 249° |
| 2026-05-07 22:58 | 45.68324 | 57.44700 | 35966 ft | 439 kts | 248° |
| 2026-05-07 22:59 | 45.66223 | 57.36491 | 35963 ft | 440 kts | 249° |
| 2026-05-07 22:59 | 45.64137 | 57.28272 | 35965 ft | 440 kts | 249° |
| 2026-05-07 23:00 | 45.62052 | 57.20048 | 35970 ft | 440 kts | 249° |
| 2026-05-07 23:00 | 45.59965 | 57.11840 | 35972 ft | 439 kts | 249° |
| 2026-05-07 23:01 | 45.57874 | 57.03646 | 35968 ft | 439 kts | 249° |
| 2026-05-07 23:01 | 45.55777 | 56.95464 | 35973 ft | 439 kts | 249° |
| 2026-05-07 23:02 | 45.53677 | 56.87295 | 35969 ft | 438 kts | 249° |
| 2026-05-07 23:02 | 45.51571 | 56.79135 | 35970 ft | 438 kts | 248° |
| 2026-05-07 23:03 | 45.49462 | 56.70990 | 35968 ft | 438 kts | 248° |
| 2026-05-07 23:03 | 45.47347 | 56.62848 | 35966 ft | 438 kts | 248° |
| 2026-05-07 23:04 | 45.45239 | 56.54766 | 35966 ft | 438 kts | 248° |
| 2026-05-07 23:04 | 45.43113 | 56.46638 | 35967 ft | 438 kts | 248° |
| 2026-05-07 23:05 | 45.40980 | 56.38513 | 35967 ft | 438 kts | 248° |
| 2026-05-07 23:05 | 45.38840 | 56.30394 | 35960 ft | 438 kts | 248° |
| 2026-05-07 23:06 | 45.36698 | 56.22288 | 35965 ft | 438 kts | 248° |
| 2026-05-07 23:06 | 45.34549 | 56.14188 | 35965 ft | 438 kts | 248° |
| 2026-05-07 23:07 | 45.32394 | 56.06094 | 35971 ft | 438 kts | 248° |
| 2026-05-07 23:07 | 45.30234 | 55.98006 | 35979 ft | 438 kts | 248° |
| 2026-05-07 23:08 | 45.28068 | 55.89924 | 35989 ft | 438 kts | 248° |
| 2026-05-07 23:08 | 45.25892 | 55.81828 | 35977 ft | 440 kts | 248° |
| 2026-05-07 23:09 | 45.23702 | 55.73716 | 35973 ft | 441 kts | 248° |
| 2026-05-07 23:09 | 45.21504 | 55.65593 | 35973 ft | 441 kts | 248° |
| 2026-05-07 23:10 | 45.19297 | 55.57469 | 35972 ft | 442 kts | 248° |
| 2026-05-07 23:10 | 45.17083 | 55.49346 | 35972 ft | 442 kts | 248° |
| 2026-05-07 23:11 | 45.14866 | 55.41237 | 35973 ft | 441 kts | 248° |
| 2026-05-07 23:11 | 45.12646 | 55.33138 | 35972 ft | 441 kts | 248° |
| 2026-05-07 23:12 | 45.10414 | 55.25059 | 35975 ft | 440 kts | 246° |
| 2026-05-07 23:12 | 45.07326 | 55.17607 | 35981 ft | 439 kts | 234° |
| 2026-05-07 23:13 | 45.03302 | 55.11191 | 35984 ft | 440 kts | 224° |
| 2026-05-07 23:13 | 44.98760 | 55.05372 | 35956 ft | 441 kts | 224° |
| 2026-05-07 23:14 | 44.94219 | 54.99579 | 35971 ft | 439 kts | 224° |
| 2026-05-07 23:14 | 44.89714 | 54.93783 | 35980 ft | 438 kts | 224° |
| 2026-05-07 23:15 | 44.85211 | 54.87977 | 35985 ft | 438 kts | 224° |
| 2026-05-07 23:15 | 44.80715 | 54.82189 | 35996 ft | 437 kts | 224° |
| 2026-05-07 23:16 | 44.76218 | 54.76416 | 35993 ft | 438 kts | 224° |
| 2026-05-07 23:16 | 44.71717 | 54.70649 | 35997 ft | 438 kts | 224° |
| 2026-05-07 23:17 | 44.67274 | 54.64810 | 35993 ft | 437 kts | 228° |
| 2026-05-07 23:17 | 44.63456 | 54.58205 | 36002 ft | 435 kts | 236° |
| 2026-05-07 23:18 | 44.60018 | 54.51216 | 36002 ft | 435 kts | 236° |
| 2026-05-07 23:18 | 44.56560 | 54.44251 | 36005 ft | 435 kts | 236° |
| 2026-05-07 23:19 | 44.53090 | 54.37302 | 36006 ft | 435 kts | 236° |
| 2026-05-07 23:19 | 44.49616 | 54.30367 | 36011 ft | 435 kts | 235° |
| 2026-05-07 23:20 | 44.46138 | 54.23443 | 36008 ft | 434 kts | 236° |
| 2026-05-07 23:20 | 44.42667 | 54.16549 | 36009 ft | 432 kts | 236° |
| 2026-05-07 23:21 | 44.39229 | 54.09733 | 36010 ft | 431 kts | 236° |
| 2026-05-07 23:21 | 44.35770 | 54.02895 | 36014 ft | 430 kts | 235° |
| 2026-05-07 23:22 | 44.32314 | 53.96076 | 36013 ft | 430 kts | 235° |
| 2026-05-07 23:22 | 44.28860 | 53.89278 | 36012 ft | 429 kts | 235° |
| 2026-05-07 23:23 | 44.25988 | 53.83640 | 36033 ft | 429 kts | 235° |
| 2026-05-07 23:23 | 44.22529 | 53.76860 | 36032 ft | 429 kts | 235° |
| 2026-05-07 23:24 | 44.19064 | 53.70087 | 36039 ft | 429 kts | 235° |
| 2026-05-07 23:24 | 44.15592 | 53.63314 | 36037 ft | 430 kts | 235° |
| 2026-05-07 23:25 | 44.12139 | 53.56594 | 36026 ft | 430 kts | 235° |
| 2026-05-07 23:25 | 44.08656 | 53.49831 | 36034 ft | 430 kts | 235° |
| 2026-05-07 23:26 | 44.05164 | 53.43067 | 36036 ft | 431 kts | 235° |
| 2026-05-07 23:26 | 44.01660 | 53.36294 | 36033 ft | 432 kts | 235° |
| 2026-05-07 23:27 | 43.96389 | 53.26136 | 36031 ft | 432 kts | 235° |
| 2026-05-07 23:27 | 43.92867 | 53.19366 | 36034 ft | 432 kts | 235° |
| 2026-05-07 23:28 | 43.89341 | 53.12605 | 36034 ft | 433 kts | 235° |
| 2026-05-07 23:28 | 43.85832 | 53.05892 | 36029 ft | 433 kts | 234° |
| 2026-05-07 23:29 | 43.82297 | 52.99140 | 36053 ft | 433 kts | 235° |
| 2026-05-07 23:29 | 43.78764 | 52.92402 | 36033 ft | 432 kts | 234° |
| 2026-05-07 23:30 | 43.75235 | 52.85686 | 36058 ft | 431 kts | 234° |
| 2026-05-07 23:30 | 43.71708 | 52.78989 | 36043 ft | 430 kts | 234° |
| 2026-05-07 23:31 | 43.68186 | 52.72313 | 36037 ft | 430 kts | 234° |
| 2026-05-07 23:31 | 43.64661 | 52.65659 | 36045 ft | 428 kts | 234° |
| 2026-05-07 23:32 | 43.61128 | 52.59048 | 36048 ft | 427 kts | 234° |
| 2026-05-07 23:32 | 43.57595 | 52.52458 | 36053 ft | 427 kts | 234° |
| 2026-05-07 23:33 | 43.54062 | 52.45876 | 36058 ft | 427 kts | 234° |
| 2026-05-07 23:33 | 43.50530 | 52.39307 | 36059 ft | 427 kts | 234° |
| 2026-05-07 23:34 | 43.46991 | 52.32738 | 36058 ft | 427 kts | 234° |
| 2026-05-07 23:34 | 43.43448 | 52.26177 | 36062 ft | 427 kts | 234° |
| 2026-05-07 23:35 | 43.39898 | 52.19617 | 36072 ft | 427 kts | 234° |
| 2026-05-07 23:35 | 43.36347 | 52.13070 | 36064 ft | 427 kts | 234° |
| 2026-05-07 23:36 | 43.32790 | 52.06528 | 36067 ft | 427 kts | 234° |
| 2026-05-07 23:36 | 43.29232 | 51.99997 | 36065 ft | 427 kts | 234° |
| 2026-05-07 23:37 | 43.25691 | 51.93511 | 36066 ft | 427 kts | 234° |
| 2026-05-07 23:37 | 43.22122 | 51.86990 | 36056 ft | 428 kts | 233° |
| 2026-05-07 23:38 | 43.18548 | 51.80472 | 36065 ft | 428 kts | 233° |
| 2026-05-07 23:38 | 43.14970 | 51.73964 | 36072 ft | 428 kts | 233° |
| 2026-05-07 23:39 | 43.11389 | 51.67462 | 36067 ft | 428 kts | 233° |
| 2026-05-07 23:39 | 43.07795 | 51.60953 | 36061 ft | 428 kts | 233° |
| 2026-05-07 23:40 | 43.04202 | 51.54458 | 36061 ft | 428 kts | 233° |
| 2026-05-07 23:40 | 43.00600 | 51.47962 | 36069 ft | 428 kts | 233° |
| 2026-05-07 23:41 | 42.96996 | 51.41477 | 36069 ft | 428 kts | 233° |
| 2026-05-07 23:41 | 42.93392 | 51.35006 | 36050 ft | 428 kts | 233° |
| 2026-05-07 23:42 | 42.89810 | 51.28589 | 36071 ft | 428 kts | 233° |
| 2026-05-07 23:42 | 42.86201 | 51.22135 | 36049 ft | 428 kts | 233° |
| 2026-05-07 23:43 | 42.82594 | 51.15702 | 36072 ft | 426 kts | 233° |
| 2026-05-07 23:43 | 42.78994 | 51.09293 | 36078 ft | 425 kts | 233° |
| 2026-05-07 23:44 | 42.75398 | 51.02906 | 36091 ft | 425 kts | 233° |
| 2026-05-07 23:44 | 42.71810 | 50.96546 | 36086 ft | 425 kts | 233° |
| 2026-05-07 23:45 | 42.68208 | 50.90174 | 36086 ft | 425 kts | 233° |
| 2026-05-07 23:45 | 42.64603 | 50.83812 | 36086 ft | 425 kts | 233° |
| 2026-05-07 23:46 | 42.60994 | 50.77456 | 36091 ft | 425 kts | 232° |
| 2026-05-07 23:46 | 42.57381 | 50.71104 | 36088 ft | 425 kts | 232° |
| 2026-05-07 23:47 | 42.53760 | 50.64755 | 36095 ft | 425 kts | 232° |
| 2026-05-07 23:47 | 42.50163 | 50.58459 | 36092 ft | 425 kts | 232° |
| 2026-05-07 23:48 | 42.46539 | 50.52125 | 36096 ft | 425 kts | 232° |
| 2026-05-07 23:48 | 42.42914 | 50.45792 | 36092 ft | 426 kts | 233° |
| 2026-05-07 23:49 | 42.39444 | 50.39294 | 36097 ft | 426 kts | 234° |
| 2026-05-07 23:49 | 42.36032 | 50.32743 | 36107 ft | 426 kts | 234° |
| 2026-05-07 23:50 | 42.32602 | 50.26215 | 36096 ft | 426 kts | 234° |
| 2026-05-07 23:50 | 42.29153 | 50.19704 | 36095 ft | 426 kts | 234° |
| 2026-05-07 23:51 | 42.25695 | 50.13204 | 36102 ft | 426 kts | 234° |
| 2026-05-07 23:51 | 42.22251 | 50.06747 | 36102 ft | 426 kts | 234° |
| 2026-05-07 23:52 | 42.18784 | 50.00259 | 36099 ft | 426 kts | 234° |
| 2026-05-07 23:52 | 42.15291 | 49.93735 | 36101 ft | 426 kts | 234° |
| 2026-05-07 23:53 | 42.11837 | 49.87299 | 36101 ft | 426 kts | 234° |
| 2026-05-07 23:53 | 42.08362 | 49.80835 | 36093 ft | 426 kts | 233° |
| 2026-05-07 23:54 | 42.04876 | 49.74366 | 36095 ft | 426 kts | 233° |
| 2026-05-07 23:54 | 42.01390 | 49.67912 | 36101 ft | 427 kts | 233° |
| 2026-05-07 23:55 | 41.97900 | 49.61462 | 36112 ft | 426 kts | 233° |
| 2026-05-07 23:55 | 41.94408 | 49.55023 | 36101 ft | 426 kts | 233° |
| 2026-05-07 23:56 | 41.90914 | 49.48593 | 36108 ft | 426 kts | 233° |
| 2026-05-07 23:56 | 41.87418 | 49.42172 | 36114 ft | 426 kts | 233° |
| 2026-05-07 23:57 | 41.83917 | 49.35754 | 36116 ft | 426 kts | 233° |
| 2026-05-07 23:57 | 41.80412 | 49.29326 | 36114 ft | 427 kts | 234° |
| 2026-05-07 23:58 | 41.77097 | 49.22718 | 36113 ft | 427 kts | 236° |
| 2026-05-07 23:58 | 41.73844 | 49.16055 | 36113 ft | 428 kts | 236° |
| 2026-05-07 23:59 | 41.70558 | 49.09406 | 36111 ft | 428 kts | 235° |
| 2026-05-07 23:59 | 41.67253 | 49.02781 | 36111 ft | 428 kts | 235° |
| 2026-05-08 00:00 | 41.63941 | 48.96164 | 36116 ft | 428 kts | 235° |
| 2026-05-08 00:00 | 41.60624 | 48.89551 | 36115 ft | 428 kts | 235° |
| 2026-05-08 00:01 | 41.57324 | 48.82984 | 36120 ft | 428 kts | 235° |
| 2026-05-08 00:01 | 41.54000 | 48.76380 | 36124 ft | 428 kts | 235° |
| 2026-05-08 00:02 | 41.50588 | 48.69857 | 36125 ft | 428 kts | 232° |
| 2026-05-08 00:02 | 41.46967 | 48.63553 | 36136 ft | 428 kts | 232° |
| 2026-05-08 00:03 | 41.43373 | 48.57217 | 36152 ft | 428 kts | 232° |
| 2026-05-08 00:03 | 41.39836 | 48.50842 | 36151 ft | 428 kts | 233° |
| 2026-05-08 00:04 | 41.36353 | 48.44410 | 36173 ft | 428 kts | 233° |
| 2026-05-08 00:04 | 41.32864 | 48.37985 | 36167 ft | 429 kts | 233° |
| 2026-05-08 00:05 | 41.29380 | 48.31603 | 36167 ft | 429 kts | 233° |
| 2026-05-08 00:05 | 41.25867 | 48.25189 | 36163 ft | 429 kts | 233° |
| 2026-05-08 00:06 | 41.22359 | 48.18797 | 36174 ft | 429 kts | 233° |
| 2026-05-08 00:06 | 41.18841 | 48.12396 | 36178 ft | 429 kts | 233° |
| 2026-05-08 00:07 | 41.15312 | 48.05990 | 36173 ft | 430 kts | 233° |
| 2026-05-08 00:07 | 41.12490 | 47.99074 | 36174 ft | 433 kts | 252° |
| 2026-05-08 00:08 | 41.11880 | 47.91047 | 36164 ft | 448 kts | 271° |
| 2026-05-08 00:08 | 41.13138 | 47.82915 | 36174 ft | 452 kts | 276° |
| 2026-05-08 00:09 | 41.14511 | 47.74760 | 36173 ft | 454 kts | 276° |
| 2026-05-08 00:09 | 41.15832 | 47.66571 | 36173 ft | 455 kts | 276° |
| 2026-05-08 00:10 | 41.17113 | 47.58368 | 36193 ft | 453 kts | 275° |
| 2026-05-08 00:10 | 41.18376 | 47.50169 | 36188 ft | 453 kts | 276° |
| 2026-05-08 00:11 | 41.19636 | 47.41972 | 36196 ft | 453 kts | 275° |
| 2026-05-08 00:11 | 41.20890 | 47.33788 | 36219 ft | 451 kts | 275° |
| 2026-05-08 00:12 | 41.22135 | 47.25626 | 36214 ft | 450 kts | 275° |
| 2026-05-08 00:12 | 41.23157 | 47.18859 | 36220 ft | 450 kts | 275° |
| 2026-05-08 00:13 | 41.24388 | 47.10694 | 36206 ft | 450 kts | 275° |
| 2026-05-08 00:13 | 41.25614 | 47.02534 | 36208 ft | 450 kts | 275° |
| 2026-05-08 00:14 | 41.26832 | 46.94371 | 36219 ft | 451 kts | 275° |
| 2026-05-08 00:14 | 41.28049 | 46.86182 | 36210 ft | 452 kts | 275° |
| 2026-05-08 00:15 | 41.29263 | 46.77972 | 36211 ft | 453 kts | 275° |
| 2026-05-08 00:15 | 41.30456 | 46.69742 | 36214 ft | 454 kts | 275° |
| 2026-05-08 00:16 | 41.31606 | 46.61484 | 36205 ft | 454 kts | 275° |
| 2026-05-08 00:16 | 41.32751 | 46.53197 | 36222 ft | 457 kts | 275° |
| 2026-05-08 00:17 | 41.33903 | 46.44859 | 36218 ft | 460 kts | 276° |
| 2026-05-08 00:17 | 41.35057 | 46.36480 | 36199 ft | 461 kts | 275° |
| 2026-05-08 00:18 | 41.36208 | 46.28079 | 36197 ft | 461 kts | 275° |
| 2026-05-08 00:18 | 41.37345 | 46.19728 | 36209 ft | 462 kts | 276° |
| 2026-05-08 00:19 | 41.38492 | 46.11257 | 36217 ft | 462 kts | 276° |
| 2026-05-08 00:19 | 41.39620 | 46.02872 | 36194 ft | 463 kts | 276° |
| 2026-05-08 00:20 | 41.40753 | 45.94411 | 36193 ft | 464 kts | 276° |
| 2026-05-08 00:20 | 41.41879 | 45.85952 | 36184 ft | 464 kts | 276° |
| 2026-05-08 00:21 | 41.42999 | 45.77476 | 36187 ft | 465 kts | 276° |
| 2026-05-08 00:21 | 41.44116 | 45.68977 | 36189 ft | 466 kts | 276° |
| 2026-05-08 00:22 | 41.45230 | 45.60459 | 36175 ft | 467 kts | 276° |
| 2026-05-08 00:22 | 41.46337 | 45.51939 | 36191 ft | 467 kts | 276° |
| 2026-05-08 00:23 | 41.47441 | 45.43395 | 36195 ft | 468 kts | 277° |
| 2026-05-08 00:23 | 41.48490 | 45.34823 | 36179 ft | 468 kts | 274° |
| 2026-05-08 00:24 | 41.49223 | 45.26195 | 36181 ft | 468 kts | 273° |
| 2026-05-08 00:24 | 41.49897 | 45.17552 | 36182 ft | 469 kts | 273° |
| 2026-05-08 00:25 | 41.50583 | 45.08895 | 36186 ft | 469 kts | 273° |
| 2026-05-08 00:25 | 41.51279 | 45.00224 | 36185 ft | 470 kts | 274° |
| 2026-05-08 00:26 | 41.51973 | 44.91541 | 36191 ft | 471 kts | 274° |
| 2026-05-08 00:26 | 41.52661 | 44.82841 | 36191 ft | 472 kts | 274° |
| 2026-05-08 00:27 | 41.53344 | 44.74114 | 36187 ft | 473 kts | 274° |
| 2026-05-08 00:27 | 41.54016 | 44.65442 | 36196 ft | 473 kts | 274° |
| 2026-05-08 00:28 | 41.54685 | 44.56712 | 36202 ft | 473 kts | 274° |
| 2026-05-08 00:28 | 41.55348 | 44.47972 | 36205 ft | 473 kts | 274° |
| 2026-05-08 00:29 | 41.56005 | 44.39239 | 36218 ft | 473 kts | 274° |
| 2026-05-08 00:29 | 41.56655 | 44.30507 | 36212 ft | 473 kts | 273° |
| 2026-05-08 00:30 | 41.56949 | 44.21765 | 36226 ft | 470 kts | 266° |
| 2026-05-08 00:30 | 41.56175 | 44.13108 | 36224 ft | 470 kts | 260° |
| 2026-05-08 00:31 | 41.55170 | 44.04485 | 36217 ft | 471 kts | 260° |
| 2026-05-08 00:31 | 41.54179 | 43.95833 | 36223 ft | 471 kts | 260° |
| 2026-05-08 00:32 | 41.53203 | 43.87175 | 36217 ft | 472 kts | 260° |
| 2026-05-08 00:32 | 41.52231 | 43.78553 | 36224 ft | 473 kts | 260° |
| 2026-05-08 00:33 | 41.51245 | 43.69865 | 36228 ft | 474 kts | 260° |
| 2026-05-08 00:33 | 41.50249 | 43.61164 | 36224 ft | 475 kts | 261° |
| 2026-05-08 00:34 | 41.49244 | 43.52451 | 36231 ft | 476 kts | 261° |
| 2026-05-08 00:34 | 41.48230 | 43.43723 | 36228 ft | 477 kts | 261° |
| 2026-05-08 00:35 | 41.47208 | 43.34974 | 36229 ft | 478 kts | 261° |
| 2026-05-08 00:35 | 41.46177 | 43.26212 | 36234 ft | 478 kts | 261° |
| 2026-05-08 00:36 | 41.45139 | 43.17451 | 36229 ft | 478 kts | 261° |
| 2026-05-08 00:36 | 41.44095 | 43.08691 | 36231 ft | 478 kts | 261° |
| 2026-05-08 00:37 | 41.43045 | 42.99933 | 36234 ft | 479 kts | 261° |
| 2026-05-08 00:38 | 41.41455 | 42.86774 | 36238 ft | 480 kts | 261° |
| 2026-05-08 00:38 | 41.40388 | 42.77996 | 36236 ft | 480 kts | 261° |
| 2026-05-08 00:39 | 41.39315 | 42.69222 | 36241 ft | 480 kts | 261° |
| 2026-05-08 00:39 | 41.38233 | 42.60439 | 36239 ft | 480 kts | 261° |
| 2026-05-08 00:40 | 41.37152 | 42.51715 | 36242 ft | 480 kts | 261° |
| 2026-05-08 00:40 | 41.36058 | 42.42939 | 36240 ft | 481 kts | 261° |
| 2026-05-08 00:41 | 41.34956 | 42.34161 | 36243 ft | 481 kts | 261° |
| 2026-05-08 00:41 | 41.33846 | 42.25371 | 36241 ft | 481 kts | 261° |
| 2026-05-08 00:42 | 41.32730 | 42.16587 | 36239 ft | 482 kts | 261° |
| 2026-05-08 00:42 | 41.31607 | 42.07807 | 36234 ft | 482 kts | 261° |
| 2026-05-08 00:43 | 41.30478 | 41.99027 | 36234 ft | 481 kts | 261° |
| 2026-05-08 00:43 | 41.29335 | 41.90255 | 36234 ft | 481 kts | 260° |
| 2026-05-08 00:44 | 41.28171 | 41.81484 | 36215 ft | 482 kts | 261° |
| 2026-05-08 00:44 | 41.27001 | 41.72720 | 36217 ft | 482 kts | 261° |
| 2026-05-08 00:45 | 41.25826 | 41.63951 | 36217 ft | 482 kts | 261° |
| 2026-05-08 00:45 | 41.24644 | 41.55174 | 36201 ft | 482 kts | 261° |
| 2026-05-08 00:46 | 41.23457 | 41.46415 | 36203 ft | 482 kts | 261° |
| 2026-05-08 00:46 | 41.22262 | 41.37649 | 36195 ft | 482 kts | 261° |
| 2026-05-08 00:47 | 41.21056 | 41.28854 | 36588 ft | 484 kts | 260° |
| 2026-05-08 00:47 | 41.20452 | 41.24470 | 36984 ft | 482 kts | 260° |
| 2026-05-08 00:47 | 41.19849 | 41.20102 | 37357 ft | 480 kts | 260° |
| 2026-05-08 00:47 | 41.19245 | 41.15745 | 37727 ft | 478 kts | 260° |
| 2026-05-08 00:48 | 41.18651 | 41.11473 | 38072 ft | 477 kts | 260° |
| 2026-05-08 00:48 | 41.17436 | 41.02768 | 38182 ft | 480 kts | 260° |
| 2026-05-08 00:49 | 41.16217 | 40.94079 | 38173 ft | 477 kts | 260° |
| 2026-05-08 00:49 | 41.15000 | 40.85456 | 38180 ft | 474 kts | 260° |
| 2026-05-08 00:50 | 41.13781 | 40.76868 | 38183 ft | 473 kts | 260° |
| 2026-05-08 00:50 | 41.12557 | 40.68296 | 38183 ft | 473 kts | 260° |
| 2026-05-08 00:51 | 41.11326 | 40.59719 | 38188 ft | 474 kts | 260° |
| 2026-05-08 00:51 | 41.10085 | 40.51119 | 38192 ft | 476 kts | 260° |
| 2026-05-08 00:52 | 41.08833 | 40.42491 | 38194 ft | 477 kts | 260° |
| 2026-05-08 00:52 | 41.07570 | 40.33835 | 38192 ft | 479 kts | 260° |
| 2026-05-08 00:53 | 41.06299 | 40.25171 | 38194 ft | 479 kts | 259° |
| 2026-05-08 00:53 | 41.05020 | 40.16499 | 38194 ft | 480 kts | 259° |
| 2026-05-08 00:54 | 41.03734 | 40.07829 | 38186 ft | 480 kts | 260° |
| 2026-05-08 00:54 | 41.02451 | 39.99225 | 38187 ft | 479 kts | 260° |
| 2026-05-08 00:55 | 41.01156 | 39.90580 | 38187 ft | 479 kts | 260° |
| 2026-05-08 00:55 | 41.00049 | 39.81906 | 38184 ft | 477 kts | 266° |
| 2026-05-08 00:56 | 41.00044 | 39.73157 | 38187 ft | 475 kts | 277° |
| 2026-05-08 00:56 | 41.00877 | 39.64503 | 38190 ft | 474 kts | 278° |
| 2026-05-08 00:57 | 41.01757 | 39.55851 | 38186 ft | 474 kts | 278° |
| 2026-05-08 00:57 | 41.02596 | 39.47190 | 38196 ft | 474 kts | 278° |
| 2026-05-08 00:58 | 41.03409 | 39.38518 | 38197 ft | 474 kts | 278° |
| 2026-05-08 00:58 | 41.04215 | 39.29839 | 38197 ft | 475 kts | 278° |
| 2026-05-08 00:59 | 41.05017 | 39.21160 | 38195 ft | 475 kts | 278° |
| 2026-05-08 00:59 | 41.05678 | 39.13947 | 38190 ft | 475 kts | 278° |
| 2026-05-08 01:00 | 41.06482 | 39.05271 | 38190 ft | 474 kts | 278° |
| 2026-05-08 01:00 | 41.07291 | 38.96597 | 38190 ft | 474 kts | 278° |
| 2026-05-08 01:01 | 41.08090 | 38.87923 | 38191 ft | 474 kts | 278° |
| 2026-05-08 01:01 | 41.08881 | 38.79254 | 38182 ft | 473 kts | 278° |
| 2026-05-08 01:02 | 41.09666 | 38.70590 | 38185 ft | 473 kts | 278° |
| 2026-05-08 01:02 | 41.10399 | 38.61920 | 38185 ft | 473 kts | 277° |
| 2026-05-08 01:03 | 41.11118 | 38.53255 | 38180 ft | 473 kts | 278° |
| 2026-05-08 01:03 | 41.11852 | 38.44586 | 38179 ft | 473 kts | 278° |
| 2026-05-08 01:04 | 41.12579 | 38.35914 | 38182 ft | 473 kts | 278° |
| 2026-05-08 01:04 | 41.13298 | 38.27239 | 38182 ft | 473 kts | 278° |
| 2026-05-08 01:05 | 41.14004 | 38.18549 | 38184 ft | 474 kts | 277° |
| 2026-05-08 01:05 | 41.14702 | 38.09854 | 38177 ft | 474 kts | 278° |
| 2026-05-08 01:06 | 41.15394 | 38.01164 | 38182 ft | 474 kts | 278° |
| 2026-05-08 01:06 | 41.16082 | 37.92468 | 38184 ft | 474 kts | 277° |
| 2026-05-08 01:07 | 41.16785 | 37.83767 | 38183 ft | 474 kts | 278° |
| 2026-05-08 01:07 | 41.17552 | 37.75085 | 38173 ft | 474 kts | 278° |
| 2026-05-08 01:08 | 41.18309 | 37.66396 | 38176 ft | 474 kts | 278° |
| 2026-05-08 01:08 | 41.18975 | 37.57747 | 38187 ft | 474 kts | 275° |
| 2026-05-08 01:09 | 41.19423 | 37.49009 | 38179 ft | 474 kts | 277° |
| 2026-05-08 01:09 | 41.20085 | 37.40306 | 38185 ft | 473 kts | 278° |
| 2026-05-08 01:10 | 41.20746 | 37.31616 | 38176 ft | 472 kts | 277° |
| 2026-05-08 01:10 | 41.21371 | 37.22934 | 38176 ft | 472 kts | 277° |
| 2026-05-08 01:11 | 41.22033 | 37.14272 | 38180 ft | 471 kts | 278° |
| 2026-05-08 01:11 | 41.22728 | 37.05619 | 38174 ft | 471 kts | 278° |
| 2026-05-08 01:12 | 41.23411 | 36.96968 | 38171 ft | 471 kts | 278° |
| 2026-05-08 01:12 | 41.24080 | 36.88316 | 38177 ft | 470 kts | 278° |
| 2026-05-08 01:13 | 41.24741 | 36.79666 | 38183 ft | 470 kts | 278° |
| 2026-05-08 01:13 | 41.25396 | 36.71020 | 38186 ft | 470 kts | 278° |
| 2026-05-08 01:14 | 41.26045 | 36.62378 | 38187 ft | 470 kts | 278° |
| 2026-05-08 01:14 | 41.26968 | 36.53813 | 38177 ft | 467 kts | 285° |
| 2026-05-08 01:15 | 41.28887 | 36.45607 | 38191 ft | 464 kts | 291° |
| 2026-05-08 01:15 | 41.31003 | 36.37490 | 38171 ft | 465 kts | 291° |
| 2026-05-08 01:16 | 41.33096 | 36.29362 | 38155 ft | 465 kts | 290° |
| 2026-05-08 01:16 | 41.35165 | 36.21208 | 38166 ft | 465 kts | 290° |
| 2026-05-08 01:17 | 41.37219 | 36.13055 | 38168 ft | 465 kts | 290° |
| 2026-05-08 01:17 | 41.39267 | 36.04889 | 38157 ft | 465 kts | 290° |
| 2026-05-08 01:18 | 41.41313 | 35.96713 | 38129 ft | 465 kts | 290° |
| 2026-05-08 01:18 | 41.43350 | 35.88545 | 38146 ft | 464 kts | 290° |
| 2026-05-08 01:19 | 41.45377 | 35.80388 | 38150 ft | 464 kts | 290° |
| 2026-05-08 01:19 | 41.47398 | 35.72227 | 38142 ft | 463 kts | 290° |
| 2026-05-08 01:20 | 41.49413 | 35.64063 | 38144 ft | 463 kts | 290° |
| 2026-05-08 01:20 | 41.51421 | 35.55901 | 38144 ft | 463 kts | 290° |
| 2026-05-08 01:21 | 41.53421 | 35.47738 | 38141 ft | 463 kts | 290° |
| 2026-05-08 01:21 | 41.55419 | 35.39559 | 38142 ft | 463 kts | 290° |
| 2026-05-08 01:22 | 41.57409 | 35.31378 | 38144 ft | 463 kts | 290° |
| 2026-05-08 01:22 | 41.59394 | 35.23192 | 38148 ft | 462 kts | 290° |
| 2026-05-08 01:23 | 41.61370 | 35.15019 | 38146 ft | 462 kts | 290° |
| 2026-05-08 01:23 | 41.63335 | 35.06858 | 38141 ft | 461 kts | 290° |
| 2026-05-08 01:24 | 41.65289 | 34.98715 | 38153 ft | 460 kts | 290° |
| 2026-05-08 01:24 | 41.67235 | 34.90574 | 38156 ft | 459 kts | 290° |
| 2026-05-08 01:25 | 41.69174 | 34.82436 | 38156 ft | 459 kts | 290° |
| 2026-05-08 01:25 | 41.71105 | 34.74301 | 38152 ft | 458 kts | 290° |
| 2026-05-08 01:26 | 41.73030 | 34.66165 | 38166 ft | 458 kts | 290° |
| 2026-05-08 01:26 | 41.74384 | 34.57809 | 38168 ft | 461 kts | 280° |
| 2026-05-08 01:27 | 41.74667 | 34.49255 | 38169 ft | 464 kts | 273° |
| 2026-05-08 01:27 | 41.74606 | 34.40605 | 38154 ft | 465 kts | 272° |
| 2026-05-08 01:28 | 41.74544 | 34.31956 | 38168 ft | 465 kts | 272° |
| 2026-05-08 01:28 | 41.74501 | 34.23296 | 38170 ft | 465 kts | 273° |
| 2026-05-08 01:29 | 41.74463 | 34.14588 | 38158 ft | 464 kts | 273° |
| 2026-05-08 01:29 | 41.74420 | 34.05955 | 38180 ft | 463 kts | 272° |
| 2026-05-08 01:30 | 41.74371 | 33.97331 | 38172 ft | 463 kts | 272° |
| 2026-05-08 01:30 | 41.74313 | 33.88728 | 38180 ft | 462 kts | 272° |
| 2026-05-08 01:31 | 41.74250 | 33.80117 | 38183 ft | 461 kts | 272° |
| 2026-05-08 01:31 | 41.74181 | 33.71588 | 38186 ft | 461 kts | 272° |
| 2026-05-08 01:32 | 41.74105 | 33.62942 | 38182 ft | 461 kts | 272° |
| 2026-05-08 01:32 | 41.74023 | 33.54408 | 38180 ft | 460 kts | 272° |
| 2026-05-08 01:33 | 41.73935 | 33.45853 | 38172 ft | 460 kts | 272° |
| 2026-05-08 01:33 | 41.73840 | 33.37302 | 38189 ft | 459 kts | 272° |
| 2026-05-08 01:34 | 41.73741 | 33.28763 | 38186 ft | 458 kts | 272° |
| 2026-05-08 01:34 | 41.73632 | 33.20219 | 38175 ft | 458 kts | 272° |
| 2026-05-08 01:35 | 41.73520 | 33.11692 | 38177 ft | 458 kts | 272° |
| 2026-05-08 01:35 | 41.73401 | 33.03155 | 38155 ft | 458 kts | 272° |
| 2026-05-08 01:36 | 41.73290 | 32.94626 | 38162 ft | 458 kts | 272° |
| 2026-05-08 01:36 | 41.73179 | 32.86100 | 38161 ft | 457 kts | 272° |
| 2026-05-08 01:37 | 41.73068 | 32.77575 | 38149 ft | 458 kts | 272° |
| 2026-05-08 01:37 | 41.72946 | 32.69046 | 38149 ft | 458 kts | 272° |
| 2026-05-08 01:38 | 41.72816 | 32.60522 | 38133 ft | 458 kts | 272° |
| 2026-05-08 01:38 | 41.72682 | 32.51997 | 38124 ft | 458 kts | 272° |
| 2026-05-08 01:39 | 41.72540 | 32.43474 | 38135 ft | 457 kts | 272° |
| 2026-05-08 01:39 | 41.72418 | 32.36402 | 38121 ft | 456 kts | 272° |
| 2026-05-08 01:40 | 41.71961 | 32.27926 | 38123 ft | 459 kts | 264° |
| 2026-05-08 01:40 | 41.70277 | 32.18236 | 38124 ft | 460 kts | 259° |
| 2026-05-08 01:41 | 41.68737 | 32.09944 | 38123 ft | 459 kts | 259° |
| 2026-05-08 01:41 | 41.67465 | 32.02991 | 38122 ft | 459 kts | 260° |
| 2026-05-08 01:42 | 41.65956 | 31.94694 | 38112 ft | 458 kts | 260° |
| 2026-05-08 01:42 | 41.64448 | 31.86419 | 38120 ft | 458 kts | 260° |
| 2026-05-08 01:43 | 41.62932 | 31.78143 | 38120 ft | 458 kts | 259° |
| 2026-05-08 01:43 | 41.61419 | 31.69922 | 38115 ft | 458 kts | 259° |
| 2026-05-08 01:44 | 41.59890 | 31.61651 | 38112 ft | 459 kts | 259° |
| 2026-05-08 01:44 | 41.58354 | 31.53379 | 38102 ft | 459 kts | 259° |
| 2026-05-08 01:45 | 41.56813 | 31.45106 | 38110 ft | 459 kts | 259° |
| 2026-05-08 01:45 | 41.56043 | 31.40954 | 37663 ft | 462 kts | 261° |
| 2026-05-08 01:45 | 41.55502 | 31.36742 | 37047 ft | 458 kts | 267° |
| 2026-05-08 01:45 | 41.55257 | 31.32532 | 36364 ft | 453 kts | 271° |
| 2026-05-08 01:46 | 41.55258 | 31.28347 | 35614 ft | 449 kts | 276° |
| 2026-05-08 01:46 | 41.55507 | 31.24197 | 34818 ft | 448 kts | 278° |
| 2026-05-08 01:46 | 41.55793 | 31.20048 | 33991 ft | 449 kts | 278° |
| 2026-05-08 01:46 | 41.56084 | 31.15890 | 33049 ft | 450 kts | 278° |
| 2026-05-08 01:47 | 41.56367 | 31.11729 | 32117 ft | 451 kts | 278° |
| 2026-05-08 01:47 | 41.56642 | 31.07545 | 31184 ft | 452 kts | 278° |
| 2026-05-08 01:47 | 41.56909 | 31.03363 | 30406 ft | 451 kts | 277° |
| 2026-05-08 01:48 | 41.57421 | 30.95100 | 28937 ft | 442 kts | 277° |
| 2026-05-08 01:48 | 41.57671 | 30.91038 | 28300 ft | 436 kts | 277° |
| 2026-05-08 01:48 | 41.57916 | 30.87026 | 27670 ft | 431 kts | 277° |
| 2026-05-08 01:48 | 41.58157 | 30.83066 | 27033 ft | 426 kts | 277° |
| 2026-05-08 01:49 | 41.58396 | 30.79139 | 26582 ft | 418 kts | 277° |
| 2026-05-08 01:49 | 41.58625 | 30.75337 | 26433 ft | 404 kts | 277° |
| 2026-05-08 01:49 | 41.58845 | 30.71655 | 26255 ft | 391 kts | 277° |
| 2026-05-08 01:49 | 41.59020 | 30.68091 | 26090 ft | 379 kts | 272° |
| 2026-05-08 01:50 | 41.58643 | 30.64638 | 25704 ft | 377 kts | 256° |
| 2026-05-08 01:50 | 41.57809 | 30.61270 | 25345 ft | 387 kts | 255° |
| 2026-05-08 01:50 | 41.57016 | 30.57803 | 24927 ft | 392 kts | 256° |
| 2026-05-08 01:50 | 41.56267 | 30.54328 | 24486 ft | 385 kts | 259° |
| 2026-05-08 01:51 | 41.56003 | 30.50807 | 24066 ft | 379 kts | 276° |
| 2026-05-08 01:51 | 41.56516 | 30.47383 | 23675 ft | 375 kts | 288° |
| 2026-05-08 01:51 | 41.57259 | 30.44047 | 23196 ft | 375 kts | 287° |
| 2026-05-08 01:51 | 41.57968 | 30.40708 | 22757 ft | 373 kts | 287° |
| 2026-05-08 01:52 | 41.58729 | 30.37425 | 22329 ft | 367 kts | 295° |
| 2026-05-08 01:52 | 41.60117 | 30.34611 | 21969 ft | 363 kts | 312° |
| 2026-05-08 01:52 | 41.62029 | 30.32425 | 21607 ft | 363 kts | 327° |
| 2026-05-08 01:52 | 41.64237 | 30.30786 | 21262 ft | 363 kts | 331° |
| 2026-05-08 01:53 | 41.66481 | 30.29204 | 20908 ft | 367 kts | 330° |
| 2026-05-08 01:53 | 41.68731 | 30.27576 | 20531 ft | 369 kts | 330° |
| 2026-05-08 01:53 | 41.70976 | 30.25922 | 20171 ft | 368 kts | 330° |
| 2026-05-08 01:53 | 41.73205 | 30.24245 | 19809 ft | 367 kts | 329° |
| 2026-05-08 01:54 | 41.75371 | 30.22477 | 19445 ft | 361 kts | 321° |
| 2026-05-08 01:54 | 41.77015 | 30.19977 | 19092 ft | 359 kts | 300° |
| 2026-05-08 01:54 | 41.77914 | 30.16878 | 18750 ft | 359 kts | 282° |
| 2026-05-08 01:54 | 41.78157 | 30.13547 | 18391 ft | 360 kts | 269° |
| 2026-05-08 01:55 | 41.77679 | 30.10267 | 17963 ft | 360 kts | 253° |
| 2026-05-08 01:55 | 41.76861 | 30.07108 | 17596 ft | 359 kts | 252° |
| 2026-05-08 01:55 | 41.76035 | 30.03962 | 17237 ft | 358 kts | 252° |
| 2026-05-08 01:55 | 41.75236 | 30.00835 | 17052 ft | 350 kts | 253° |
| 2026-05-08 01:56 | 41.74487 | 29.97829 | 16940 ft | 338 kts | 253° |
| 2026-05-08 01:56 | 41.73753 | 29.94855 | 16828 ft | 326 kts | 253° |
| 2026-05-08 01:56 | 41.73053 | 29.92013 | 16664 ft | 316 kts | 253° |
| 2026-05-08 01:56 | 41.72697 | 29.89176 | 16218 ft | 310 kts | 275° |
| 2026-05-08 01:57 | 41.73240 | 29.86411 | 15780 ft | 309 kts | 297° |
| 2026-05-08 01:57 | 41.74472 | 29.84081 | 15423 ft | 307 kts | 314° |
| 2026-05-08 01:57 | 41.76170 | 29.82389 | 15030 ft | 306 kts | 331° |
| 2026-05-08 01:57 | 41.78063 | 29.81097 | 14657 ft | 305 kts | 332° |
| 2026-05-08 01:58 | 41.79922 | 29.79816 | 14304 ft | 304 kts | 331° |
| 2026-05-08 01:58 | 41.81789 | 29.78496 | 13957 ft | 300 kts | 328° |
| 2026-05-08 01:58 | 41.83334 | 29.76677 | 13412 ft | 299 kts | 302° |
| 2026-05-08 01:58 | 41.84152 | 29.74156 | 13172 ft | 294 kts | 283° |
| 2026-05-08 01:59 | 41.84361 | 29.71443 | 12822 ft | 292 kts | 272° |
| 2026-05-08 01:59 | 41.84411 | 29.68718 | 12421 ft | 292 kts | 271° |
| 2026-05-08 01:59 | 41.84468 | 29.65997 | 12046 ft | 292 kts | 272° |
| 2026-05-08 01:59 | 41.84535 | 29.63288 | 11723 ft | 289 kts | 272° |
| 2026-05-08 02:00 | 41.84607 | 29.60604 | 11395 ft | 287 kts | 272° |
| 2026-05-08 02:00 | 41.84571 | 29.57958 | 10990 ft | 283 kts | 259° |
| 2026-05-08 02:00 | 41.83817 | 29.55533 | 10503 ft | 283 kts | 241° |
| 2026-05-08 02:00 | 41.82842 | 29.53234 | 10123 ft | 283 kts | 242° |
| 2026-05-08 02:01 | 41.81909 | 29.50957 | 10065 ft | 274 kts | 242° |
| 2026-05-08 02:01 | 41.80997 | 29.48731 | 10008 ft | 272 kts | 240° |
| 2026-05-08 02:01 | 41.79710 | 29.46851 | 9999 ft | 282 kts | 213° |
| 2026-05-08 02:01 | 41.77849 | 29.45954 | 9993 ft | 289 kts | 188° |
| 2026-05-08 02:02 | 41.75838 | 29.45870 | 9999 ft | 291 kts | 182° |
| 2026-05-08 02:02 | 41.73804 | 29.45851 | 10001 ft | 294 kts | 182° |
| 2026-05-08 02:02 | 41.71757 | 29.45826 | 9988 ft | 293 kts | 182° |
| 2026-05-08 02:02 | 41.69737 | 29.45794 | 9976 ft | 288 kts | 182° |
| 2026-05-08 02:03 | 41.67740 | 29.45755 | 9980 ft | 287 kts | 183° |
| 2026-05-08 02:03 | 41.65740 | 29.45712 | 9996 ft | 288 kts | 183° |
| 2026-05-08 02:03 | 41.63731 | 29.45667 | 10002 ft | 289 kts | 182° |
| 2026-05-08 02:03 | 41.61712 | 29.45677 | 9992 ft | 291 kts | 181° |
| 2026-05-08 02:04 | 41.59682 | 29.45723 | 9996 ft | 292 kts | 181° |
| 2026-05-08 02:04 | 41.57648 | 29.45768 | 9993 ft | 293 kts | 181° |
| 2026-05-08 02:04 | 41.55612 | 29.45809 | 9994 ft | 293 kts | 181° |
| 2026-05-08 02:04 | 41.53575 | 29.45824 | 9977 ft | 289 kts | 185° |
| 2026-05-08 02:05 | 41.51614 | 29.45362 | 10004 ft | 286 kts | 197° |
| 2026-05-08 02:05 | 41.49699 | 29.44649 | 9995 ft | 286 kts | 198° |
| 2026-05-08 02:05 | 41.47775 | 29.43941 | 9998 ft | 287 kts | 197° |
| 2026-05-08 02:05 | 41.45841 | 29.43263 | 9993 ft | 288 kts | 196° |
| 2026-05-08 02:06 | 41.43909 | 29.42578 | 9975 ft | 281 kts | 200° |
| 2026-05-08 02:06 | 41.42182 | 29.41500 | 9999 ft | 269 kts | 211° |
| 2026-05-08 02:06 | 41.40593 | 29.40256 | 9979 ft | 262 kts | 212° |
| 2026-05-08 02:06 | 41.39021 | 29.39034 | 10000 ft | 262 kts | 212° |
| 2026-05-08 02:07 | 41.37439 | 29.37833 | 9995 ft | 262 kts | 211° |
| 2026-05-08 02:07 | 41.35844 | 29.36640 | 9997 ft | 263 kts | 211° |
| 2026-05-08 02:07 | 41.34357 | 29.35270 | 9996 ft | 259 kts | 224° |
| 2026-05-08 02:07 | 41.33067 | 29.33608 | 9997 ft | 255 kts | 226° |
| 2026-05-08 02:08 | 41.31829 | 29.31956 | 9979 ft | 249 kts | 226° |
| 2026-05-08 02:08 | 41.30612 | 29.30333 | 9983 ft | 246 kts | 230° |
| 2026-05-08 02:08 | 41.29818 | 29.28366 | 10005 ft | 244 kts | 259° |
| 2026-05-08 02:08 | 41.29858 | 29.26117 | 10012 ft | 247 kts | 286° |
| 2026-05-08 02:09 | 41.30625 | 29.24089 | 9818 ft | 248 kts | 310° |
| 2026-05-08 02:09 | 41.31929 | 29.22601 | 9436 ft | 248 kts | 321° |
| 2026-05-08 02:09 | 41.33297 | 29.21197 | 9096 ft | 248 kts | 320° |
| 2026-05-08 02:09 | 41.34648 | 29.19794 | 8808 ft | 246 kts | 320° |
| 2026-05-08 02:10 | 41.35988 | 29.18393 | 8507 ft | 244 kts | 320° |
| 2026-05-08 02:10 | 41.37320 | 29.16994 | 8252 ft | 241 kts | 319° |
| 2026-05-08 02:10 | 41.38608 | 29.15639 | 8274 ft | 235 kts | 319° |
| 2026-05-08 02:10 | 41.39927 | 29.14246 | 8080 ft | 248 kts | 319° |
| 2026-05-08 02:11 | 41.41288 | 29.12807 | 7853 ft | 251 kts | 319° |
| 2026-05-08 02:11 | 41.42650 | 29.11368 | 7600 ft | 248 kts | 319° |
| 2026-05-08 02:11 | 41.43992 | 29.09950 | 7360 ft | 244 kts | 319° |
| 2026-05-08 02:11 | 41.45310 | 29.08556 | 7140 ft | 240 kts | 319° |
| 2026-05-08 02:12 | 41.46607 | 29.07183 | 6925 ft | 237 kts | 319° |
| 2026-05-08 02:12 | 41.47898 | 29.05815 | 6700 ft | 236 kts | 319° |
| 2026-05-08 02:12 | 41.49181 | 29.04454 | 6487 ft | 236 kts | 319° |
| 2026-05-08 02:12 | 41.50464 | 29.03092 | 6261 ft | 235 kts | 319° |
| 2026-05-08 02:13 | 41.51744 | 29.01734 | 6037 ft | 235 kts | 319° |
| 2026-05-08 02:13 | 41.53022 | 29.00377 | 5833 ft | 235 kts | 318° |
| 2026-05-08 02:13 | 41.54303 | 28.99017 | 5601 ft | 235 kts | 318° |
| 2026-05-08 02:13 | 41.55582 | 28.97657 | 5365 ft | 235 kts | 318° |
| 2026-05-08 02:14 | 41.56861 | 28.96296 | 5168 ft | 235 kts | 318° |
| 2026-05-08 02:14 | 41.58118 | 28.94929 | 5049 ft | 229 kts | 313° |
| 2026-05-08 02:14 | 41.59165 | 28.93350 | 4996 ft | 224 kts | 306° |
| 2026-05-08 02:14 | 41.60126 | 28.91728 | 4987 ft | 221 kts | 306° |
| 2026-05-08 02:15 | 41.61083 | 28.90132 | 5005 ft | 219 kts | 306° |
| 2026-05-08 02:15 | 41.62052 | 28.88535 | 5007 ft | 223 kts | 306° |
| 2026-05-08 02:15 | 41.63038 | 28.86923 | 4991 ft | 225 kts | 306° |
| 2026-05-08 02:15 | 41.64031 | 28.85298 | 4989 ft | 225 kts | 305° |
| 2026-05-08 02:16 | 41.64775 | 28.83515 | 4988 ft | 218 kts | 289° |
| 2026-05-08 02:16 | 41.65300 | 28.81613 | 4985 ft | 219 kts | 287° |
| 2026-05-08 02:16 | 41.65810 | 28.79697 | 4982 ft | 217 kts | 285° |
| 2026-05-08 02:16 | 41.65927 | 28.77737 | 4972 ft | 212 kts | 257° |
| 2026-05-08 02:17 | 41.65283 | 28.75986 | 4987 ft | 212 kts | 232° |
| 2026-05-08 02:17 | 41.64144 | 28.74738 | 4973 ft | 214 kts | 208° |
| 2026-05-08 02:17 | 41.62754 | 28.73977 | 4988 ft | 218 kts | 203° |
| 2026-05-08 02:17 | 41.61328 | 28.73273 | 4989 ft | 218 kts | 202° |
| 2026-05-08 02:18 | 41.59923 | 28.72577 | 4973 ft | 213 kts | 201° |
| 2026-05-08 02:18 | 41.58470 | 28.72228 | 4994 ft | 210 kts | 187° |
| 2026-05-08 02:18 | 41.57030 | 28.72183 | 4984 ft | 205 kts | 183° |
| 2026-05-08 02:18 | 41.55605 | 28.72200 | 4977 ft | 204 kts | 182° |
| 2026-05-08 02:19 | 41.54176 | 28.72226 | 4863 ft | 208 kts | 182° |
| 2026-05-08 02:19 | 41.52726 | 28.72256 | 4591 ft | 206 kts | 182° |
| 2026-05-08 02:19 | 41.51331 | 28.72286 | 4312 ft | 194 kts | 183° |
| 2026-05-08 02:19 | 41.50019 | 28.72314 | 4073 ft | 186 kts | 183° |
| 2026-05-08 02:20 | 41.48729 | 28.72338 | 3842 ft | 185 kts | 183° |
| 2026-05-08 02:20 | 41.47441 | 28.72362 | 3616 ft | 186 kts | 183° |
| 2026-05-08 02:20 | 41.46146 | 28.72387 | 3382 ft | 186 kts | 183° |
| 2026-05-08 02:20 | 41.44854 | 28.72412 | 3135 ft | 185 kts | 183° |
| 2026-05-08 02:21 | 41.43621 | 28.72438 | 2879 ft | 174 kts | 184° |
| 2026-05-08 02:21 | 41.42460 | 28.72462 | 2659 ft | 161 kts | 184° |
| 2026-05-08 02:21 | 41.41346 | 28.72483 | 2475 ft | 159 kts | 184° |
| 2026-05-08 02:21 | 41.40253 | 28.72503 | 2258 ft | 155 kts | 184° |
| 2026-05-08 02:22 | 41.39212 | 28.72525 | 2055 ft | 144 kts | 184° |
| 2026-05-08 02:22 | 41.38240 | 28.72543 | 1886 ft | 137 kts | 184° |
| 2026-05-08 02:22 | 41.37280 | 28.72561 | 1712 ft | 140 kts | 184° |
| 2026-05-08 02:22 | 41.36307 | 28.72579 | 1512 ft | 140 kts | 184° |
| 2026-05-08 02:23 | 41.35341 | 28.72597 | 1320 ft | 138 kts | 182° |
| 2026-05-08 02:23 | 41.34691 | 28.72610 | 1192 ft | 138 kts | 182° |
| 2026-05-08 02:23 | 41.33731 | 28.72629 | 1014 ft | 139 kts | 181° |
| 2026-05-08 02:23 | 41.32762 | 28.72648 | 817 ft | 139 kts | 180° |
| 2026-05-08 02:24 | 41.31813 | 28.72667 | 638 ft | 136 kts | 181° |
| 2026-05-08 02:24 | 41.30866 | 28.72686 | 463 ft | 135 kts | 180° |
| 2026-05-08 02:24 | 41.29931 | 28.72709 | 292 ft | 137 kts | 181° |
| 2026-05-08 02:24 | 41.29014 | 28.72721 | 251 ft | 121 kts | 179° |
| 2026-05-08 02:25 | 41.28328 | 28.72733 | 268 ft | 77 kts | 179° |
| 2026-05-08 02:25 | 41.27919 | 28.72741 | 281 ft | 49 kts | 179° |
| 2026-05-08 02:25 | 41.27617 | 28.72770 | 294 ft | 31 kts | 163° |
| 2026-05-08 02:25 | 41.27481 | 28.72867 | 304 ft | 21 kts | 142° |
| 2026-05-08 02:26 | 41.27390 | 28.72954 | 307 ft | 10 kts | 149° |
| 2026-05-08 02:26 | 41.27325 | 28.72981 | 311 ft | 10 kts | 173° |
| 2026-05-08 02:26 | 41.27257 | 28.72982 | 310 ft | 10 kts | 179° |
| 2026-05-08 02:26 | 41.27181 | 28.72982 | 311 ft | 11 kts | 179° |
| 2026-05-08 02:27 | 41.27098 | 28.72985 | 314 ft | 13 kts | 179° |
| 2026-05-08 02:27 | 41.26994 | 28.72987 | 313 ft | 17 kts | 179° |
| 2026-05-08 02:27 | 41.26886 | 28.73003 | 316 ft | 13 kts | 144° |
| 2026-05-08 02:27 | 41.26866 | 28.73120 | 313 ft | 14 kts | 92° |
| 2026-05-08 02:28 | 41.26867 | 28.73253 | 318 ft | 15 kts | 89° |
| 2026-05-08 02:28 | 41.26868 | 28.73394 | 318 ft | 16 kts | 89° |
| 2026-05-08 02:28 | 41.26870 | 28.73554 | 318 ft | 18 kts | 89° |
| 2026-05-08 02:28 | 41.26873 | 28.73729 | 318 ft | 18 kts | 89° |
| 2026-05-08 02:29 | 41.26875 | 28.73893 | 318 ft | 18 kts | 89° |
| 2026-05-08 02:29 | 41.26850 | 28.74000 | 318 ft | 12 kts | 146° |
| 2026-05-08 02:29 | 41.26766 | 28.74015 | 318 ft | 12 kts | 178° |
| 2026-05-08 02:29 | 41.26690 | 28.74017 | 318 ft | 6 kts | 178° |
| 2026-05-08 02:30 | 41.26645 | 28.74020 | 318 ft | 7 kts | 173° |
| 2026-05-08 02:30 | 41.26605 | 28.74053 | 318 ft | 7 kts | 117° |
| 2026-05-08 02:30 | 41.26603 | 28.74085 | 318 ft | 3 kts | 91° |
| 2026-05-08 02:30 | 41.26602 | 28.74110 | 318 ft | 1 kts | 90° |
| 2026-05-08 02:31 | 41.26602 | 28.74118 | 318 ft | 1 kts | 90° |
| 2026-05-08 02:31 | 41.26602 | 28.74119 | 318 ft | 0 kts | 90° |
| 2026-05-08 02:31 | 41.26602 | 28.74120 | 318 ft | 0 kts | 90° |